createdAt,value
2022-12-08T00:00:31.927Z,4.93
2022-12-08T00:05:52.257Z,5.40
2022-12-08T00:10:53.919Z,7.97
2022-12-08T00:16:00.699Z,5.05
2022-12-08T00:21:02.855Z,6.45
2022-12-08T00:26:05.471Z,8.50
2022-12-08T00:31:08.744Z,5.50
2022-12-08T00:36:13.062Z,8.70
2022-12-08T00:41:17.515Z,7.88
2022-12-08T00:46:19.177Z,6.75
2022-12-08T00:51:20.881Z,6.45
2022-12-08T00:56:22.651Z,4.95
2022-12-08T01:01:24.438Z,4.20
2022-12-08T01:06:26.144Z,6.03
2022-12-08T01:11:28.766Z,4.20
2022-12-08T01:16:33.253Z,6.88
2022-12-08T01:21:34.932Z,9.70
2022-12-08T01:26:43.886Z,5.63
2022-12-08T01:31:45.598Z,5.65
2022-12-08T01:36:50.444Z,6.32
2022-12-08T01:41:52.117Z,5.63
2022-12-08T01:46:54.415Z,5.13
2022-12-08T01:52:09.994Z,8.77
2022-12-08T01:57:12.739Z,7.57
2022-12-08T02:02:15.257Z,8.35
2022-12-08T02:07:18.000Z,6.50
2022-12-08T02:12:19.676Z,8.77
2022-12-08T02:17:36.575Z,11.30
2022-12-08T02:22:50.835Z,9.65
2022-12-08T02:27:55.531Z,8.68
2022-12-08T02:33:38.853Z,8.75
2022-12-08T02:38:46.159Z,8.13
2022-12-08T02:43:49.409Z,8.77
2022-12-08T02:48:51.759Z,11.45
2022-12-08T02:53:53.462Z,7.55
2022-12-08T02:59:16.661Z,8.52
2022-12-08T03:04:31.276Z,7.43
2022-12-08T03:09:46.827Z,7.80
2022-12-08T03:14:53.026Z,7.80
2022-12-08T03:19:55.746Z,9.48
2022-12-08T03:24:57.862Z,9.27
2022-12-08T03:30:00.696Z,9.32
2022-12-08T03:35:05.795Z,10.50
2022-12-08T03:40:10.120Z,12.05
2022-12-08T03:45:12.173Z,10.18
2022-12-08T03:50:15.107Z,8.13
2022-12-08T03:55:17.337Z,7.22
2022-12-08T04:00:19.167Z,9.00
2022-12-08T04:05:20.811Z,6.93
2022-12-08T04:10:22.425Z,7.53
2022-12-08T04:15:24.140Z,7.70
2022-12-08T04:20:25.832Z,8.57
2022-12-08T04:25:27.856Z,7.60
2022-12-08T04:30:29.532Z,8.60
2022-12-08T04:35:31.645Z,8.10
2022-12-08T04:40:33.612Z,7.63
2022-12-08T04:45:35.436Z,6.35
2022-12-08T04:50:40.608Z,9.45
2022-12-08T04:55:44.234Z,8.30
2022-12-08T05:00:46.611Z,6.97
2022-12-08T05:05:48.272Z,8.52
2022-12-08T05:10:50.038Z,7.43
2022-12-08T05:15:51.808Z,11.10
2022-12-08T05:20:53.513Z,7.55
2022-12-08T05:25:55.366Z,7.95
2022-12-08T05:30:57.017Z,8.45
2022-12-08T05:35:58.653Z,8.00
2022-12-08T05:41:00.386Z,12.10
2022-12-08T05:46:02.532Z,11.32
2022-12-08T05:51:05.010Z,10.10
2022-12-08T05:56:06.981Z,9.10
2022-12-08T06:01:21.416Z,8.40
2022-12-08T06:06:23.073Z,6.20
2022-12-08T06:11:29.772Z,6.95
2022-12-08T06:16:31.535Z,6.07
2022-12-08T06:21:33.275Z,9.57
2022-12-08T06:26:36.129Z,10.52
2022-12-08T06:31:37.879Z,9.48
2022-12-08T06:36:39.553Z,8.35
2022-12-08T06:41:59.730Z,9.40
2022-12-08T06:47:01.368Z,8.10
2022-12-08T06:52:03.090Z,9.57
2022-12-08T06:57:04.719Z,6.03
2022-12-08T07:02:06.716Z,7.38
2022-12-08T07:07:08.441Z,9.15
2022-12-08T07:12:10.109Z,9.60
2022-12-08T07:17:12.358Z,8.25
2022-12-08T07:22:14.362Z,7.50
2022-12-08T07:27:16.004Z,10.43
2022-12-08T07:32:17.758Z,7.90
2022-12-08T07:37:19.480Z,9.18
2022-12-08T07:42:21.177Z,7.05
2022-12-08T07:47:22.861Z,7.18
2022-12-08T07:52:24.816Z,9.80
2022-12-08T07:57:26.530Z,8.88
2022-12-08T08:02:28.413Z,8.05
2022-12-08T08:07:31.306Z,11.45
2022-12-08T08:12:33.301Z,10.02
2022-12-08T08:17:36.912Z,9.98
2022-12-08T08:22:39.073Z,10.38
2022-12-08T08:27:42.408Z,10.55
2022-12-08T08:32:45.339Z,14.68
2022-12-08T08:37:49.446Z,9.68
2022-12-08T08:42:52.627Z,9.35
2022-12-08T08:47:54.265Z,10.70
2022-12-08T08:52:57.709Z,9.55
2022-12-08T08:57:59.349Z,11.57
2022-12-08T09:03:01.074Z,9.13
2022-12-08T09:08:02.872Z,11.68
2022-12-08T09:13:04.574Z,8.88
2022-12-08T09:18:12.441Z,8.02
2022-12-08T09:23:16.068Z,9.50
2022-12-08T09:28:17.696Z,8.75
2022-12-08T09:33:19.393Z,13.30
2022-12-08T09:38:21.126Z,8.68
2022-12-08T09:43:28.745Z,11.18
2022-12-08T09:48:34.581Z,9.55
2022-12-08T09:53:39.851Z,10.57
2022-12-08T09:58:58.037Z,9.77
2022-12-08T10:04:00.983Z,10.07
2022-12-08T10:09:02.625Z,8.73
2022-12-08T10:14:26.085Z,8.43
2022-12-08T10:24:37.378Z,8.73
2022-12-08T10:29:40.536Z,8.75
2022-12-08T10:35:01.797Z,7.75
2022-12-08T10:40:11.276Z,6.10
2022-12-08T10:45:24.196Z,6.40
2022-12-08T10:50:35.405Z,6.07
2022-12-08T10:55:46.429Z,7.82
2022-12-08T11:00:48.226Z,6.47
2022-12-08T11:05:50.053Z,8.00
2022-12-08T11:10:51.670Z,7.80
2022-12-08T11:15:57.186Z,8.35
2022-12-08T11:21:02.331Z,7.72
2022-12-08T11:26:18.378Z,7.35
2022-12-08T11:31:32.424Z,6.70
2022-12-08T11:36:37.656Z,6.13
2022-12-08T11:41:42.444Z,5.93
2022-12-08T11:46:50.867Z,5.30
2022-12-08T11:52:17.590Z,4.63
2022-12-08T11:57:21.168Z,4.65
2022-12-08T12:02:29.778Z,5.35
2022-12-08T12:07:57.595Z,4.47
2022-12-08T12:13:26.703Z,4.72
2022-12-08T12:18:35.893Z,4.35
2022-12-08T12:23:53.773Z,4.03
2022-12-08T12:28:59.013Z,5.45
2022-12-08T12:34:11.008Z,4.95
2022-12-08T12:39:13.669Z,6.63
2022-12-08T12:44:15.281Z,5.22
2022-12-08T12:49:43.904Z,4.68
2022-12-08T12:55:05.558Z,5.38
2022-12-08T13:00:10.096Z,6.22
2022-12-08T13:05:26.182Z,5.55
2022-12-08T13:10:30.751Z,6.60
2022-12-08T13:15:38.357Z,5.78
2022-12-08T13:20:42.789Z,6.05
2022-12-08T13:25:44.389Z,7.60
2022-12-08T13:31:26.447Z,6.40
2022-12-08T13:36:33.845Z,6.70
2022-12-08T13:41:41.865Z,6.35
2022-12-08T13:47:16.855Z,4.72
2022-12-08T13:53:49.043Z,4.93
2022-12-08T13:57:39.658Z,5.63
2022-12-08T14:02:49.434Z,5.68
2022-12-08T14:07:55.013Z,6.90
2022-12-08T14:13:03.100Z,5.55
2022-12-08T14:18:04.865Z,4.20
2022-12-08T14:23:08.235Z,5.90
2022-12-08T14:28:10.587Z,5.15
2022-12-08T14:33:15.122Z,6.97
2022-12-08T14:38:18.828Z,5.57
2022-12-08T14:43:21.165Z,5.20
2022-12-08T14:48:25.963Z,6.18
2022-12-08T14:53:31.963Z,4.65
2022-12-08T14:58:33.637Z,6.57
2022-12-08T15:03:36.566Z,6.82
2022-12-08T15:08:58.764Z,6.07
2022-12-08T15:14:01.352Z,7.32
2022-12-08T15:19:30.466Z,5.68
2022-12-08T15:24:32.419Z,6.38
2022-12-08T15:29:34.083Z,6.50
2022-12-08T15:34:37.188Z,8.43
2022-12-08T15:39:39.434Z,8.10
2022-12-08T15:44:41.738Z,7.18
2022-12-08T15:49:44.046Z,9.25
2022-12-08T15:54:45.783Z,6.95
2022-12-08T15:59:47.601Z,7.30
2022-12-08T16:10:20.702Z,6.95
2022-12-08T16:15:50.062Z,11.32
2022-12-08T16:21:08.092Z,7.15
2022-12-08T16:26:21.910Z,12.05
2022-12-08T16:31:28.613Z,9.05
2022-12-08T16:36:30.332Z,7.13
2022-12-08T16:41:50.524Z,6.50
2022-12-08T16:46:52.278Z,6.53
2022-12-08T16:51:54.123Z,5.75
2022-12-08T16:56:55.796Z,7.60
2022-12-08T17:01:57.532Z,6.60
2022-12-08T17:06:59.552Z,7.20
2022-12-08T17:12:04.058Z,7.43
2022-12-08T17:17:06.544Z,7.10
2022-12-08T17:22:08.291Z,8.27
2022-12-08T17:27:09.944Z,8.15
2022-12-08T17:32:11.846Z,6.72
2022-12-08T17:37:13.823Z,7.80
2022-12-08T17:42:15.715Z,6.45
2022-12-08T17:47:17.366Z,7.30
2022-12-08T17:52:19.064Z,7.68
2022-12-08T17:57:20.770Z,6.47
2022-12-08T18:02:22.658Z,6.05
2022-12-08T18:07:24.438Z,9.38
2022-12-08T18:12:26.076Z,8.15
2022-12-08T18:17:27.745Z,7.05
2022-12-08T18:22:29.449Z,7.72
2022-12-08T18:27:31.100Z,7.80
2022-12-08T18:32:33.182Z,8.27
2022-12-08T18:37:34.929Z,7.90
2022-12-08T18:42:36.761Z,6.20
2022-12-08T18:47:40.241Z,6.40
2022-12-08T18:52:42.353Z,7.25
2022-12-08T18:57:44.117Z,7.22
2022-12-08T19:02:46.036Z,5.30
2022-12-08T19:07:47.982Z,6.05
2022-12-08T19:12:51.267Z,5.60
2022-12-08T19:17:53.074Z,6.70
2022-12-08T19:22:55.286Z,6.30
2022-12-08T19:27:56.986Z,5.53
2022-12-08T19:32:58.778Z,6.82
2022-12-08T19:38:00.480Z,8.10
2022-12-08T19:43:20.822Z,7.22
2022-12-08T19:48:22.594Z,6.57
2022-12-08T19:53:24.634Z,5.53
2022-12-08T19:58:26.345Z,5.85
2022-12-08T20:03:28.120Z,6.57
2022-12-08T20:08:29.925Z,6.53
2022-12-08T20:13:47.806Z,5.88
2022-12-08T20:18:49.993Z,9.32
2022-12-08T20:23:51.752Z,6.65
2022-12-08T20:28:53.450Z,7.03
2022-12-08T20:33:55.595Z,7.60
2022-12-08T20:38:57.426Z,8.55
2022-12-08T20:43:59.084Z,6.50
2022-12-08T20:49:03.256Z,7.10
2022-12-08T20:54:05.002Z,7.47
2022-12-08T20:59:06.827Z,7.50
2022-12-08T21:04:12.348Z,7.05
2022-12-08T21:09:14.476Z,8.27
2022-12-08T21:14:16.220Z,8.32
2022-12-08T21:19:19.829Z,6.20
2022-12-08T21:24:21.662Z,7.85
2022-12-08T21:29:23.431Z,8.20
2022-12-08T21:34:26.327Z,20.27
2022-12-08T21:39:28.185Z,10.52
2022-12-08T21:44:30.073Z,9.30
2022-12-08T21:49:32.045Z,12.02
2022-12-08T21:54:33.817Z,10.63
2022-12-08T21:59:35.718Z,10.68
2022-12-08T22:04:37.673Z,11.07
2022-12-08T22:09:39.695Z,11.88
2022-12-08T22:14:41.570Z,10.00
2022-12-08T22:19:43.661Z,12.20
2022-12-08T22:24:45.542Z,13.07
2022-12-08T22:29:47.209Z,9.10
2022-12-08T22:34:49.942Z,10.20
2022-12-08T22:39:51.831Z,13.13
2022-12-08T22:44:53.443Z,13.57
2022-12-08T22:49:55.197Z,11.10
2022-12-08T22:54:56.839Z,11.15
2022-12-08T22:59:58.658Z,12.65
2022-12-08T23:05:00.550Z,13.00
2022-12-08T23:10:02.906Z,11.95
2022-12-08T23:15:05.730Z,11.95
2022-12-08T23:20:08.179Z,10.30
2022-12-08T23:25:10.322Z,13.18
2022-12-08T23:30:12.650Z,13.30
2022-12-08T23:35:14.756Z,13.38
2022-12-08T23:40:16.627Z,11.77
2022-12-08T23:45:18.395Z,14.25
2022-12-08T23:50:20.187Z,14.40
2022-12-08T23:55:21.884Z,12.98
